createdAt,value
2023-06-24T00:00:15.797Z,1063.00
2023-06-24T00:01:15.844Z,1060.00
2023-06-24T00:02:15.747Z,1064.00
2023-06-24T00:03:15.831Z,1075.00
2023-06-24T00:04:15.722Z,1058.00
2023-06-24T00:05:15.718Z,1066.00
2023-06-24T00:06:15.714Z,1064.00
2023-06-24T00:07:15.767Z,1052.00
2023-06-24T00:08:15.674Z,1057.00
2023-06-24T00:09:15.675Z,1055.00
2023-06-24T00:10:17.104Z,1058.00
2023-06-24T00:11:15.655Z,1055.00
2023-06-24T00:12:15.636Z,1057.00
2023-06-24T00:13:15.626Z,1055.00
2023-06-24T00:14:15.611Z,1060.00
2023-06-24T00:15:15.591Z,1058.00
2023-06-24T00:16:15.582Z,1060.00
2023-06-24T00:17:15.555Z,1057.00
2023-06-24T00:18:15.640Z,1063.00
2023-06-24T00:19:15.547Z,1055.00
2023-06-24T00:20:15.546Z,1047.00
2023-06-24T00:21:15.516Z,1045.00
2023-06-24T00:22:16.235Z,1045.00
2023-06-24T00:23:15.481Z,1053.00
2023-06-24T00:24:15.459Z,1037.00
2023-06-24T00:25:15.495Z,1046.00
2023-06-24T00:26:15.441Z,1055.00
2023-06-24T00:27:15.420Z,1049.00
2023-06-24T00:28:15.404Z,1064.00
2023-06-24T00:29:15.400Z,1046.00
2023-06-24T00:30:15.387Z,1048.00
2023-06-24T00:31:15.386Z,1052.00
2023-06-24T00:32:15.357Z,1063.00
2023-06-24T00:33:15.334Z,1048.00
2023-06-24T00:34:15.323Z,1052.00
2023-06-24T00:35:15.300Z,1032.00
2023-06-24T00:36:15.280Z,1039.00
2023-06-24T00:37:15.268Z,1053.00
2023-06-24T00:38:15.268Z,1047.00
2023-06-24T00:39:15.227Z,1062.00
2023-06-24T00:40:15.227Z,1031.00
2023-06-24T00:41:17.125Z,1046.00
2023-06-24T00:42:15.183Z,1031.00
2023-06-24T00:43:15.246Z,1062.00
2023-06-24T00:44:15.140Z,1039.00
2023-06-24T00:45:15.131Z,1028.00
2023-06-24T00:46:15.107Z,1023.00
2023-06-24T00:47:15.100Z,1044.00
2023-06-24T00:48:15.075Z,1049.00
2023-06-24T00:49:15.084Z,1037.00
2023-06-24T00:50:15.081Z,1043.00
2023-06-24T00:51:15.043Z,1035.00
2023-06-24T00:52:15.042Z,1040.00
2023-06-24T00:53:15.008Z,1038.00
2023-06-24T00:54:14.999Z,1027.00
2023-06-24T00:55:14.982Z,1036.00
2023-06-24T00:56:14.974Z,1033.00
2023-06-24T00:57:14.958Z,1042.00
2023-06-24T00:58:14.947Z,1032.00
2023-06-24T00:59:14.946Z,1033.00
2023-06-24T01:00:14.958Z,1034.00
2023-06-24T01:01:14.963Z,1038.00
2023-06-24T01:02:14.905Z,1028.00
2023-06-24T01:03:14.967Z,1027.00
2023-06-24T01:04:14.866Z,1032.00
2023-06-24T01:05:14.857Z,1026.00
2023-06-24T01:06:14.848Z,1018.00
2023-06-24T01:07:14.878Z,1028.00
2023-06-24T01:08:14.826Z,1021.00
2023-06-24T01:09:14.829Z,1031.00
2023-06-24T01:10:14.792Z,1043.00
2023-06-24T01:11:14.789Z,1039.00
2023-06-24T01:12:14.774Z,1018.00
2023-06-24T01:13:14.774Z,1019.00
2023-06-24T01:14:14.770Z,1014.00
2023-06-24T01:15:14.755Z,1012.00
2023-06-24T01:16:14.735Z,1026.00
2023-06-24T01:17:14.724Z,1015.00
2023-06-24T01:18:14.703Z,1021.00
2023-06-24T01:19:14.705Z,1021.00
2023-06-24T01:20:14.685Z,1032.00
2023-06-24T01:21:14.701Z,1028.00
2023-06-24T01:22:14.665Z,1025.00
2023-06-24T01:23:14.650Z,1034.00
2023-06-24T01:24:14.646Z,1016.00
2023-06-24T01:25:14.630Z,1029.00
2023-06-24T01:26:14.630Z,1018.00
2023-06-24T01:27:14.606Z,1006.00
2023-06-24T01:28:14.598Z,1018.00
2023-06-24T01:29:14.580Z,1023.00
2023-06-24T01:30:14.577Z,1018.00
2023-06-24T01:31:14.589Z,1018.00
2023-06-24T01:32:14.563Z,1008.00
2023-06-24T01:33:14.688Z,1016.00
2023-06-24T01:34:14.550Z,1023.00
2023-06-24T01:35:14.558Z,1027.00
2023-06-24T01:36:14.545Z,1018.00
2023-06-24T01:37:14.537Z,1008.00
2023-06-24T01:38:14.532Z,1003.00
2023-06-24T01:39:14.531Z,1013.00
2023-06-24T01:40:14.533Z,998.00
2023-06-24T01:41:14.520Z,1012.00
2023-06-24T01:42:14.505Z,1013.00
2023-06-24T01:43:14.493Z,1006.00
2023-06-24T01:44:14.482Z,1020.00
2023-06-24T01:45:14.475Z,1017.00
2023-06-24T01:46:14.459Z,1015.00
2023-06-24T01:47:14.502Z,1025.00
2023-06-24T01:48:14.439Z,1018.00
2023-06-24T01:49:14.420Z,1020.00
2023-06-24T01:50:14.411Z,1008.00
2023-06-24T01:51:14.497Z,1002.00
2023-06-24T01:52:14.411Z,1023.00
2023-06-24T01:53:14.398Z,1020.00
2023-06-24T01:54:14.389Z,1018.00
2023-06-24T01:55:14.384Z,1017.00
2023-06-24T01:56:14.381Z,1012.00
2023-06-24T01:57:14.375Z,1014.00
2023-06-24T01:58:14.387Z,1020.00
2023-06-24T01:59:14.368Z,1022.00
2023-06-24T02:00:14.352Z,1015.00
2023-06-24T02:01:14.386Z,1010.00
2023-06-24T02:02:14.404Z,1016.00
2023-06-24T02:03:14.430Z,1015.00
2023-06-24T02:04:14.348Z,999.00
2023-06-24T02:05:14.340Z,1002.00
2023-06-24T02:06:14.347Z,1011.00
2023-06-24T02:07:14.368Z,1013.00
2023-06-24T02:08:14.334Z,1008.00
2023-06-24T02:09:14.336Z,1015.00
2023-06-24T02:10:14.329Z,1018.00
2023-06-24T02:11:14.330Z,1018.00
2023-06-24T02:12:14.324Z,1020.00
2023-06-24T02:13:14.334Z,1009.00
2023-06-24T02:14:14.322Z,1016.00
2023-06-24T02:15:14.325Z,1009.00
2023-06-24T02:16:14.312Z,1019.00
2023-06-24T02:17:14.313Z,1010.00
2023-06-24T02:18:14.302Z,1017.00
2023-06-24T02:19:14.298Z,1004.00
2023-06-24T02:20:14.294Z,1007.00
2023-06-24T02:21:14.288Z,1012.00
2023-06-24T02:22:14.289Z,1019.00
2023-06-24T02:23:14.288Z,1005.00
2023-06-24T02:24:14.284Z,1011.00
2023-06-24T02:25:14.292Z,1002.00
2023-06-24T02:26:14.288Z,1006.00
2023-06-24T02:27:14.279Z,1009.00
2023-06-24T02:28:14.276Z,1004.00
2023-06-24T02:29:14.296Z,1021.00
2023-06-24T02:30:14.276Z,1008.00
2023-06-24T02:31:14.318Z,1016.00
2023-06-24T02:32:14.272Z,1016.00
2023-06-24T02:33:14.289Z,1006.00
2023-06-24T02:34:14.280Z,1004.00
2023-06-24T02:35:14.295Z,1018.00
2023-06-24T02:36:14.317Z,1009.00
2023-06-24T02:37:14.281Z,1022.00
2023-06-24T02:38:14.291Z,1008.00
2023-06-24T02:39:14.286Z,1012.00
2023-06-24T02:40:14.283Z,1028.00
2023-06-24T02:41:14.290Z,1007.00
2023-06-24T02:42:14.290Z,1015.00
2023-06-24T02:43:14.280Z,1009.00
2023-06-24T02:44:14.290Z,1019.00
2023-06-24T02:45:14.273Z,1009.00
2023-06-24T02:46:16.563Z,1014.00
2023-06-24T02:47:14.453Z,1008.00
2023-06-24T02:48:14.398Z,1013.00
2023-06-24T02:49:14.403Z,1012.00
2023-06-24T02:50:14.400Z,1008.00
2023-06-24T02:51:14.419Z,999.00
2023-06-24T02:52:14.429Z,1021.00
2023-06-24T02:53:14.409Z,1007.00
2023-06-24T02:54:14.403Z,997.00
2023-06-24T02:55:14.401Z,1025.00
2023-06-24T02:56:15.620Z,1002.00
2023-06-24T02:57:14.405Z,1011.00
2023-06-24T02:58:14.417Z,1002.00
2023-06-24T02:59:14.415Z,1015.00
2023-06-24T03:00:14.437Z,998.00
2023-06-24T03:01:14.433Z,1014.00
2023-06-24T03:02:14.404Z,1016.00
2023-06-24T03:03:14.487Z,1010.00
2023-06-24T03:04:14.410Z,1012.00
2023-06-24T03:05:14.393Z,1015.00
2023-06-24T03:06:14.387Z,1009.00
2023-06-24T03:07:14.422Z,1011.00
2023-06-24T03:08:14.376Z,1013.00
2023-06-24T03:09:14.392Z,992.00
2023-06-24T03:10:14.474Z,1000.00
2023-06-24T03:11:14.389Z,1010.00
2023-06-24T03:12:14.391Z,1013.00
2023-06-24T03:13:14.399Z,1022.00
2023-06-24T03:14:14.388Z,1019.00
2023-06-24T03:15:14.377Z,1002.00
2023-06-24T03:16:14.381Z,1011.00
2023-06-24T03:17:14.385Z,1003.00
2023-06-24T03:18:14.384Z,1003.00
2023-06-24T03:19:14.388Z,1009.00
2023-06-24T03:20:14.437Z,1004.00
2023-06-24T03:21:14.397Z,1012.00
2023-06-24T03:22:14.394Z,1001.00
2023-06-24T03:23:14.393Z,1002.00
2023-06-24T03:24:14.400Z,998.00
2023-06-24T03:25:14.404Z,1005.00
2023-06-24T03:26:14.406Z,1015.00
2023-06-24T03:27:14.417Z,1003.00
2023-06-24T03:28:14.422Z,1003.00
2023-06-24T03:29:14.412Z,1004.00
2023-06-24T03:30:14.411Z,1016.00
2023-06-24T03:31:14.432Z,1006.00
2023-06-24T03:32:14.434Z,1009.00
2023-06-24T03:33:14.406Z,1020.00
2023-06-24T03:34:14.413Z,1009.00
2023-06-24T03:35:14.418Z,1002.00
2023-06-24T03:36:14.427Z,1008.00
2023-06-24T03:37:14.512Z,1001.00
2023-06-24T03:38:14.414Z,1001.00
2023-06-24T03:39:14.421Z,1002.00
2023-06-24T03:40:14.414Z,1005.00
2023-06-24T03:41:14.414Z,1001.00
2023-06-24T03:42:14.424Z,1001.00
2023-06-24T03:43:14.433Z,1001.00
2023-06-24T03:44:14.414Z,1009.00
2023-06-24T03:45:14.418Z,992.00
2023-06-24T03:46:14.435Z,1003.00
2023-06-24T03:47:14.412Z,999.00
2023-06-24T03:48:14.408Z,1015.00
2023-06-24T03:49:14.406Z,998.00
2023-06-24T03:50:14.413Z,1011.00
2023-06-24T03:51:14.406Z,1018.00
2023-06-24T03:52:14.423Z,992.00
2023-06-24T03:53:14.410Z,1008.00
2023-06-24T03:54:14.409Z,1008.00
2023-06-24T03:55:14.408Z,1008.00
2023-06-24T03:56:14.414Z,1007.00
2023-06-24T03:57:14.402Z,1013.00
2023-06-24T03:58:14.397Z,1009.00
2023-06-24T03:59:14.404Z,992.00
2023-06-24T04:00:14.402Z,1006.00
2023-06-24T04:01:14.439Z,999.00
2023-06-24T04:02:14.408Z,1008.00
2023-06-24T04:03:14.413Z,998.00
2023-06-24T04:04:14.422Z,1024.00
2023-06-24T04:05:14.432Z,1008.00
2023-06-24T04:06:14.423Z,992.00
2023-06-24T04:07:14.500Z,994.00
2023-06-24T04:08:14.426Z,998.00
2023-06-24T04:09:14.431Z,1009.00
2023-06-24T04:10:14.432Z,1007.00
2023-06-24T04:11:14.449Z,1013.00
2023-06-24T04:12:14.439Z,1004.00
2023-06-24T04:13:14.463Z,989.00
2023-06-24T04:14:14.467Z,998.00
2023-06-24T04:15:14.432Z,1007.00
2023-06-24T04:16:14.433Z,1004.00
2023-06-24T04:17:14.430Z,991.00
2023-06-24T04:18:14.441Z,991.00
2023-06-24T04:19:14.442Z,994.00
2023-06-24T04:20:14.450Z,997.00
2023-06-24T04:21:14.451Z,985.00
2023-06-24T04:22:14.447Z,1004.00
2023-06-24T04:23:14.448Z,996.00
2023-06-24T04:24:14.463Z,998.00
2023-06-24T04:25:14.458Z,991.00
2023-06-24T04:26:14.470Z,991.00
2023-06-24T04:27:14.468Z,981.00
2023-06-24T04:28:14.483Z,985.00
2023-06-24T04:29:14.476Z,988.00
2023-06-24T04:30:14.485Z,998.00
2023-06-24T04:31:14.538Z,991.00
2023-06-24T04:32:14.487Z,996.00
2023-06-24T04:33:14.492Z,992.00
2023-06-24T04:34:14.499Z,997.00
2023-06-24T04:35:14.508Z,987.00
2023-06-24T04:36:14.526Z,1010.00
2023-06-24T04:37:14.520Z,984.00
2023-06-24T04:38:14.545Z,976.00
2023-06-24T04:39:14.549Z,984.00
2023-06-24T04:40:14.549Z,987.00
2023-06-24T04:41:14.546Z,991.00
2023-06-24T04:42:14.540Z,1000.00
2023-06-24T04:43:14.541Z,988.00
2023-06-24T04:44:14.544Z,990.00
2023-06-24T04:45:14.558Z,995.00
2023-06-24T04:46:14.553Z,1000.00
2023-06-24T04:47:14.552Z,996.00
2023-06-24T04:48:14.568Z,985.00
2023-06-24T04:49:14.562Z,991.00
2023-06-24T04:50:14.562Z,999.00
2023-06-24T04:51:14.566Z,986.00
2023-06-24T04:52:14.582Z,989.00
2023-06-24T04:53:14.557Z,989.00
2023-06-24T04:54:14.564Z,985.00
2023-06-24T04:55:14.568Z,977.00
2023-06-24T04:56:14.567Z,984.00
2023-06-24T04:57:14.567Z,987.00
2023-06-24T04:58:14.573Z,982.00
2023-06-24T04:59:14.622Z,990.00
2023-06-24T05:00:14.597Z,995.00
2023-06-24T05:01:14.627Z,988.00
2023-06-24T05:02:14.596Z,998.00
2023-06-24T05:03:14.603Z,988.00
2023-06-24T05:04:14.621Z,1005.00
2023-06-24T05:05:14.677Z,986.00
2023-06-24T05:06:14.632Z,969.00
2023-06-24T05:07:14.720Z,981.00
2023-06-24T05:08:14.646Z,993.00
2023-06-24T05:09:14.653Z,981.00
2023-06-24T05:10:14.657Z,989.00
2023-06-24T05:11:14.665Z,990.00
2023-06-24T05:12:14.666Z,991.00
2023-06-24T05:13:14.665Z,990.00
2023-06-24T05:14:14.673Z,976.00
2023-06-24T05:15:14.717Z,985.00
2023-06-24T05:16:14.688Z,990.00
2023-06-24T05:17:14.742Z,974.00
2023-06-24T05:18:14.701Z,978.00
2023-06-24T05:19:14.711Z,984.00
2023-06-24T05:20:14.714Z,978.00
2023-06-24T05:21:14.717Z,988.00
2023-06-24T05:22:14.728Z,971.00
2023-06-24T05:23:14.731Z,992.00
2023-06-24T05:24:14.727Z,976.00
2023-06-24T05:25:14.732Z,981.00
2023-06-24T05:26:14.747Z,975.00
2023-06-24T05:27:14.746Z,975.00
2023-06-24T05:28:14.743Z,971.00
2023-06-24T05:29:14.759Z,985.00
2023-06-24T05:30:14.756Z,971.00
2023-06-24T05:31:14.752Z,971.00
2023-06-24T05:32:14.753Z,968.00
2023-06-24T05:33:14.769Z,978.00
2023-06-24T05:34:14.786Z,960.00
2023-06-24T05:35:14.790Z,981.00
2023-06-24T05:36:14.799Z,969.00
2023-06-24T05:37:14.792Z,963.00
2023-06-24T05:38:14.804Z,982.00
2023-06-24T05:39:14.799Z,982.00
2023-06-24T05:40:14.804Z,966.00
2023-06-24T05:41:14.805Z,963.00
2023-06-24T05:42:14.794Z,976.00
2023-06-24T05:43:14.797Z,970.00
2023-06-24T05:44:14.798Z,976.00
2023-06-24T05:45:14.793Z,968.00
2023-06-24T05:46:14.842Z,968.00
2023-06-24T05:47:14.800Z,966.00
2023-06-24T05:48:14.805Z,979.00
2023-06-24T05:49:14.789Z,960.00
2023-06-24T05:50:14.793Z,967.00
2023-06-24T05:51:14.810Z,979.00
2023-06-24T05:52:14.798Z,964.00
2023-06-24T05:53:14.798Z,973.00
2023-06-24T05:54:14.796Z,962.00
2023-06-24T05:55:14.813Z,971.00
2023-06-24T05:56:14.825Z,972.00
2023-06-24T05:57:14.807Z,962.00
2023-06-24T05:58:14.812Z,973.00
2023-06-24T05:59:14.817Z,962.00
2023-06-24T06:00:14.837Z,974.00
2023-06-24T06:01:14.825Z,952.00
2023-06-24T06:02:14.882Z,961.00
2023-06-24T06:03:14.877Z,952.00
2023-06-24T06:04:14.849Z,958.00
2023-06-24T06:05:14.864Z,968.00
2023-06-24T06:06:14.867Z,983.00
2023-06-24T06:07:14.880Z,965.00
2023-06-24T06:08:14.850Z,955.00
2023-06-24T06:09:14.863Z,948.00
2023-06-24T06:10:14.868Z,966.00
2023-06-24T06:11:14.871Z,942.00
2023-06-24T06:12:14.878Z,966.00
2023-06-24T06:13:14.881Z,968.00
2023-06-24T06:14:14.887Z,970.00
2023-06-24T06:15:14.882Z,943.00
2023-06-24T06:16:14.915Z,966.00
2023-06-24T06:17:14.917Z,962.00
2023-06-24T06:18:14.916Z,961.00
2023-06-24T06:19:14.923Z,966.00
2023-06-24T06:20:14.941Z,962.00
2023-06-24T06:21:14.942Z,953.00
2023-06-24T06:22:14.921Z,951.00
2023-06-24T06:23:14.933Z,948.00
2023-06-24T06:24:14.943Z,944.00
2023-06-24T06:25:14.943Z,942.00
2023-06-24T06:26:14.938Z,949.00
2023-06-24T06:27:14.945Z,954.00
2023-06-24T06:28:14.940Z,943.00
2023-06-24T06:29:14.945Z,946.00
2023-06-24T06:30:14.931Z,964.00
2023-06-24T06:31:15.005Z,954.00
2023-06-24T06:32:14.931Z,949.00
2023-06-24T06:33:14.992Z,946.00
2023-06-24T06:34:14.963Z,962.00
2023-06-24T06:35:14.939Z,962.00
2023-06-24T06:36:14.950Z,947.00
2023-06-24T06:37:14.960Z,957.00
2023-06-24T06:38:14.957Z,933.00
2023-06-24T06:39:14.973Z,939.00
2023-06-24T06:40:14.968Z,953.00
2023-06-24T06:41:14.972Z,935.00
2023-06-24T06:42:14.979Z,948.00
2023-06-24T06:43:14.968Z,946.00
2023-06-24T06:44:14.980Z,943.00
2023-06-24T06:45:14.976Z,937.00
2023-06-24T06:46:15.040Z,954.00
2023-06-24T06:47:14.981Z,952.00
2023-06-24T06:48:14.982Z,940.00
2023-06-24T06:49:15.004Z,949.00
2023-06-24T06:50:15.004Z,927.00
2023-06-24T06:51:15.009Z,951.00
2023-06-24T06:52:17.224Z,938.00
2023-06-24T06:53:14.987Z,944.00
2023-06-24T06:54:14.969Z,948.00
2023-06-24T06:55:14.939Z,933.00
2023-06-24T06:56:14.943Z,929.00
2023-06-24T06:57:14.905Z,938.00
2023-06-24T06:58:14.887Z,942.00
2023-06-24T06:59:14.863Z,938.00
2023-06-24T07:00:14.848Z,939.00
2023-06-24T07:01:14.844Z,941.00
2023-06-24T07:02:14.782Z,933.00
2023-06-24T07:03:14.783Z,947.00
2023-06-24T07:04:14.721Z,940.00
2023-06-24T07:05:14.708Z,933.00
2023-06-24T07:06:14.739Z,935.00
2023-06-24T07:07:14.711Z,941.00
2023-06-24T07:08:14.638Z,948.00
2023-06-24T07:09:14.621Z,937.00
2023-06-24T07:10:14.610Z,931.00
2023-06-24T07:11:14.574Z,936.00
2023-06-24T07:12:14.556Z,925.00
2023-06-24T07:13:14.538Z,932.00
2023-06-24T07:14:14.515Z,940.00
2023-06-24T07:15:14.484Z,936.00
2023-06-24T07:16:14.473Z,931.00
2023-06-24T07:17:14.437Z,930.00
2023-06-24T07:18:14.436Z,926.00
2023-06-24T07:19:14.404Z,936.00
2023-06-24T07:20:14.377Z,936.00
2023-06-24T07:21:14.369Z,920.00
2023-06-24T07:22:14.343Z,938.00
2023-06-24T07:23:14.310Z,935.00
2023-06-24T07:24:14.302Z,941.00
2023-06-24T07:25:14.279Z,930.00
2023-06-24T07:26:14.278Z,923.00
2023-06-24T07:27:14.238Z,912.00
2023-06-24T07:28:14.290Z,920.00
2023-06-24T07:29:14.198Z,915.00
2023-06-24T07:30:14.183Z,944.00
2023-06-24T07:31:14.191Z,917.00
2023-06-24T07:32:14.143Z,933.00
2023-06-24T07:33:14.118Z,929.00
2023-06-24T07:34:14.101Z,925.00
2023-06-24T07:35:14.093Z,928.00
2023-06-24T07:36:14.076Z,935.00
2023-06-24T07:37:23.201Z,917.00
2023-06-24T07:38:15.024Z,919.00
2023-06-24T07:39:14.006Z,922.00
2023-06-24T07:40:13.991Z,921.00
2023-06-24T07:41:13.972Z,914.00
2023-06-24T07:42:13.948Z,926.00
2023-06-24T07:43:13.941Z,926.00
2023-06-24T07:44:13.907Z,922.00
2023-06-24T07:45:13.889Z,905.00
2023-06-24T07:46:13.894Z,912.00
2023-06-24T07:47:13.853Z,900.00
2023-06-24T07:48:13.829Z,906.00
2023-06-24T07:49:13.813Z,899.00
2023-06-24T07:50:13.795Z,897.00
2023-06-24T07:51:13.770Z,905.00
2023-06-24T07:52:13.754Z,895.00
2023-06-24T07:53:13.726Z,900.00
2023-06-24T07:54:13.713Z,882.00
2023-06-24T07:55:13.700Z,886.00
2023-06-24T07:56:13.697Z,894.00
2023-06-24T07:57:13.664Z,885.00
2023-06-24T07:58:13.649Z,888.00
2023-06-24T07:59:13.643Z,883.00
2023-06-24T08:00:13.592Z,881.00
2023-06-24T08:01:13.577Z,881.00
2023-06-24T08:02:13.539Z,881.00
2023-06-24T08:03:13.670Z,881.00
2023-06-24T08:04:13.561Z,875.00
2023-06-24T08:05:13.512Z,889.00
2023-06-24T08:06:13.456Z,884.00
2023-06-24T08:07:13.513Z,874.00
2023-06-24T08:08:13.410Z,877.00
2023-06-24T08:09:13.372Z,864.00
2023-06-24T08:10:13.370Z,865.00
2023-06-24T08:11:13.331Z,858.00
2023-06-24T08:12:13.331Z,855.00
2023-06-24T08:13:13.275Z,858.00
2023-06-24T08:14:13.248Z,867.00
2023-06-24T08:15:13.271Z,844.00
2023-06-24T08:16:13.217Z,864.00
2023-06-24T08:17:13.173Z,859.00
2023-06-24T08:18:13.148Z,857.00
2023-06-24T08:19:13.114Z,870.00
2023-06-24T08:20:13.099Z,859.00
2023-06-24T08:21:13.075Z,848.00
2023-06-24T08:22:13.062Z,855.00
2023-06-24T08:23:13.043Z,860.00
2023-06-24T08:24:13.043Z,862.00
2023-06-24T08:25:13.050Z,849.00
2023-06-24T08:26:17.530Z,855.00
2023-06-24T08:27:14.093Z,856.00
2023-06-24T08:28:13.287Z,857.00
2023-06-24T08:29:13.045Z,857.00
2023-06-24T08:30:13.027Z,857.00
2023-06-24T08:31:13.028Z,860.00
2023-06-24T08:32:12.970Z,855.00
2023-06-24T08:33:13.009Z,860.00
2023-06-24T08:34:12.941Z,854.00
2023-06-24T08:35:12.913Z,838.00
2023-06-24T08:36:12.886Z,856.00
2023-06-24T08:37:12.859Z,854.00
2023-06-24T08:38:12.881Z,864.00
2023-06-24T08:39:12.912Z,851.00
2023-06-24T08:40:12.931Z,845.00
2023-06-24T08:41:12.961Z,851.00
2023-06-24T08:42:12.970Z,837.00
2023-06-24T08:43:12.956Z,843.00
2023-06-24T08:44:12.978Z,828.00
2023-06-24T08:45:12.997Z,842.00
2023-06-24T08:46:13.013Z,846.00
2023-06-24T08:47:13.053Z,836.00
2023-06-24T08:48:13.134Z,842.00
2023-06-24T08:49:13.132Z,844.00
2023-06-24T08:50:13.043Z,845.00
2023-06-24T08:51:13.041Z,838.00
2023-06-24T08:52:13.069Z,859.00
2023-06-24T08:53:13.076Z,845.00
2023-06-24T08:54:13.076Z,840.00
2023-06-24T08:55:13.079Z,846.00
2023-06-24T08:56:13.096Z,841.00
2023-06-24T08:57:13.060Z,841.00
2023-06-24T08:58:13.043Z,847.00
2023-06-24T08:59:13.033Z,836.00
2023-06-24T09:00:13.041Z,848.00
2023-06-24T09:01:13.048Z,851.00
2023-06-24T09:02:13.129Z,844.00
2023-06-24T09:03:13.098Z,853.00
2023-06-24T09:04:13.025Z,842.00
2023-06-24T09:05:13.039Z,848.00
2023-06-24T09:06:13.054Z,833.00
2023-06-24T09:07:13.134Z,840.00
2023-06-24T09:08:13.070Z,837.00
2023-06-24T09:09:13.076Z,839.00
2023-06-24T09:10:13.076Z,843.00
2023-06-24T09:11:13.068Z,833.00
2023-06-24T09:12:15.634Z,832.00
2023-06-24T09:13:13.061Z,840.00
2023-06-24T09:14:13.124Z,839.00
2023-06-24T09:15:13.001Z,838.00
2023-06-24T09:16:12.973Z,828.00
2023-06-24T09:17:12.958Z,825.00
2023-06-24T09:18:12.930Z,841.00
2023-06-24T09:19:12.895Z,831.00
2023-06-24T09:20:12.870Z,830.00
2023-06-24T09:21:12.836Z,834.00
2023-06-24T09:22:12.811Z,849.00
2023-06-24T09:23:12.834Z,839.00
2023-06-24T09:24:12.745Z,831.00
2023-06-24T09:25:12.708Z,845.00
2023-06-24T09:26:12.686Z,835.00
2023-06-24T09:27:12.660Z,846.00
2023-06-24T09:28:12.619Z,850.00
2023-06-24T09:29:12.591Z,839.00
2023-06-24T09:30:12.568Z,846.00
2023-06-24T09:32:12.552Z,840.00
2023-06-24T09:33:12.499Z,842.00
2023-06-24T09:34:12.450Z,844.00
2023-06-24T09:35:12.424Z,841.00
2023-06-24T09:36:12.393Z,844.00
2023-06-24T09:37:12.382Z,845.00
2023-06-24T09:38:12.422Z,833.00
2023-06-24T09:39:28.875Z,838.00
2023-06-24T09:40:13.307Z,840.00
2023-06-24T09:41:14.271Z,843.00
2023-06-24T09:42:12.251Z,848.00
2023-06-24T09:43:12.242Z,850.00
2023-06-24T09:44:12.288Z,853.00
2023-06-24T09:45:12.300Z,850.00
2023-06-24T09:46:12.381Z,838.00
2023-06-24T09:47:12.345Z,845.00
2023-06-24T09:48:12.372Z,842.00
2023-06-24T09:49:12.413Z,843.00
2023-06-24T09:50:12.457Z,847.00
2023-06-24T09:51:12.496Z,842.00
2023-06-24T09:52:12.505Z,839.00
2023-06-24T09:53:12.536Z,834.00
2023-06-24T09:54:12.539Z,831.00
2023-06-24T09:55:12.568Z,844.00
2023-06-24T09:56:12.604Z,845.00
2023-06-24T09:57:13.241Z,843.00
2023-06-24T09:58:12.677Z,850.00
2023-06-24T09:59:12.724Z,841.00
2023-06-24T10:00:12.742Z,844.00
2023-06-24T10:01:12.837Z,839.00
2023-06-24T10:02:12.852Z,847.00
2023-06-24T10:03:12.905Z,833.00
2023-06-24T10:04:12.902Z,852.00
2023-06-24T10:05:12.846Z,843.00
2023-06-24T10:06:12.861Z,838.00
2023-06-24T10:07:12.935Z,837.00
2023-06-24T10:08:12.875Z,846.00
2023-06-24T10:09:13.618Z,839.00
2023-06-24T10:10:12.855Z,825.00
2023-06-24T10:11:12.862Z,839.00
2023-06-24T10:12:12.860Z,839.00
2023-06-24T10:13:12.857Z,843.00
2023-06-24T10:14:12.872Z,839.00
2023-06-24T10:15:12.913Z,834.00
2023-06-24T10:16:12.918Z,848.00
2023-06-24T10:17:12.895Z,834.00
2023-06-24T10:18:16.664Z,828.00
2023-06-24T10:19:12.837Z,857.00
2023-06-24T10:20:12.799Z,849.00
2023-06-24T10:21:12.763Z,851.00
2023-06-24T10:22:12.751Z,842.00
2023-06-24T10:23:12.702Z,855.00
2023-06-24T10:24:12.676Z,842.00
2023-06-24T10:25:12.642Z,826.00
2023-06-24T10:26:12.623Z,837.00
2023-06-24T10:27:12.576Z,831.00
2023-06-24T10:28:12.557Z,830.00
2023-06-24T10:29:12.542Z,844.00
2023-06-24T10:30:12.491Z,832.00
2023-06-24T10:31:12.507Z,835.00
2023-06-24T10:32:12.426Z,832.00
2023-06-24T10:33:12.421Z,821.00
2023-06-24T10:34:12.444Z,837.00
2023-06-24T10:35:12.349Z,835.00
2023-06-24T10:36:12.305Z,830.00
2023-06-24T10:37:12.292Z,841.00
2023-06-24T10:38:12.247Z,828.00
2023-06-24T10:39:12.232Z,842.00
2023-06-24T10:40:12.373Z,829.00
2023-06-24T10:41:12.192Z,841.00
2023-06-24T10:42:12.138Z,835.00
2023-06-24T10:43:12.104Z,843.00
2023-06-24T10:44:12.076Z,845.00
2023-06-24T10:45:12.082Z,831.00
2023-06-24T10:46:12.073Z,835.00
2023-06-24T10:47:11.996Z,833.00
2023-06-24T10:48:11.974Z,834.00
2023-06-24T10:49:11.936Z,837.00
2023-06-24T10:50:11.921Z,847.00
2023-06-24T10:51:11.878Z,843.00
2023-06-24T10:52:11.878Z,830.00
2023-06-24T10:53:11.840Z,837.00
2023-06-24T10:54:11.805Z,840.00
2023-06-24T10:55:11.784Z,840.00
2023-06-24T10:56:11.751Z,832.00
2023-06-24T10:57:11.731Z,838.00
2023-06-24T10:58:12.878Z,835.00
2023-06-24T10:59:11.673Z,837.00
2023-06-24T11:00:11.700Z,831.00
2023-06-24T11:01:11.758Z,839.00
2023-06-24T11:02:11.785Z,829.00
2023-06-24T11:03:11.859Z,828.00
2023-06-24T11:04:12.820Z,839.00
2023-06-24T11:05:11.830Z,839.00
2023-06-24T11:06:11.888Z,837.00
2023-06-24T11:07:11.924Z,844.00
2023-06-24T11:08:11.913Z,832.00
2023-06-24T11:09:11.954Z,846.00
2023-06-24T11:10:13.373Z,836.00
2023-06-24T11:11:12.001Z,832.00
2023-06-24T11:12:12.017Z,829.00
2023-06-24T11:13:12.032Z,828.00
2023-06-24T11:14:12.070Z,820.00
2023-06-24T11:15:12.114Z,839.00
2023-06-24T11:16:12.134Z,830.00
2023-06-24T11:17:12.170Z,842.00
2023-06-24T11:18:12.356Z,829.00
2023-06-24T11:19:12.219Z,831.00
2023-06-24T11:20:12.265Z,827.00
2023-06-24T11:21:12.296Z,833.00
2023-06-24T11:22:12.349Z,827.00
2023-06-24T11:23:12.689Z,834.00
2023-06-24T11:24:12.353Z,834.00
2023-06-24T11:25:12.380Z,825.00
2023-06-24T11:26:12.393Z,833.00
2023-06-24T11:27:13.350Z,838.00
2023-06-24T11:28:12.403Z,817.00
2023-06-24T11:29:12.438Z,831.00
2023-06-24T11:30:12.460Z,830.00
2023-06-24T11:31:12.494Z,828.00
2023-06-24T11:32:12.500Z,831.00
2023-06-24T11:33:12.530Z,820.00
2023-06-24T11:34:12.549Z,828.00
2023-06-24T11:35:12.584Z,830.00
2023-06-24T11:36:12.609Z,831.00
2023-06-24T11:37:12.660Z,825.00
2023-06-24T11:38:12.690Z,822.00
2023-06-24T11:39:14.489Z,824.00
2023-06-24T11:40:12.772Z,816.00
2023-06-24T11:41:12.792Z,824.00
2023-06-24T11:42:12.866Z,825.00
2023-06-24T11:43:12.856Z,815.00
2023-06-24T11:44:12.902Z,826.00
2023-06-24T11:45:16.158Z,825.00
2023-06-24T11:46:12.899Z,842.00
2023-06-24T11:47:12.872Z,836.00
2023-06-24T11:48:12.833Z,836.00
2023-06-24T11:49:12.807Z,822.00
2023-06-24T11:50:12.777Z,809.00
2023-06-24T11:51:14.529Z,816.00
2023-06-24T11:52:12.724Z,836.00
2023-06-24T11:53:12.680Z,828.00
2023-06-24T11:54:12.654Z,813.00
2023-06-24T11:55:12.614Z,814.00
2023-06-24T11:56:12.600Z,821.00
2023-06-24T11:57:15.659Z,820.00
2023-06-24T11:58:12.514Z,835.00
2023-06-24T11:59:12.493Z,833.00
2023-06-24T12:00:12.462Z,821.00
2023-06-24T12:01:12.440Z,818.00
2023-06-24T12:02:12.507Z,822.00
2023-06-24T12:03:12.638Z,825.00
2023-06-24T12:04:12.489Z,802.00
2023-06-24T12:05:12.385Z,794.00
2023-06-24T12:06:12.268Z,813.00
2023-06-24T12:07:12.274Z,811.00
2023-06-24T12:08:12.203Z,805.00
2023-06-24T12:09:12.168Z,813.00
2023-06-24T12:10:12.201Z,813.00
2023-06-24T12:11:12.089Z,805.00
2023-06-24T12:12:12.089Z,807.00
2023-06-24T12:13:12.041Z,810.00
2023-06-24T12:14:12.001Z,800.00
2023-06-24T12:15:11.964Z,802.00
2023-06-24T12:16:11.933Z,803.00
2023-06-24T12:17:11.909Z,813.00
2023-06-24T12:18:11.929Z,801.00
2023-06-24T12:19:11.837Z,793.00
2023-06-24T12:20:11.812Z,804.00
2023-06-24T12:21:11.781Z,794.00